Mobile, AL (36601)

7:12 AM CDT on June 02, 2015 (GMT -0500)
Westlawn | | Change Station
CLOSE
Current Station
Personal Weather Station
Location: Mobile, AL
Elevation: 43 ft
Nearby Weather Stations

Elev 43 ft 30.68 °N, 88.12 °W | Updated 7 minutes ago

Mostly Cloudy
Mostly Cloudy
71.0 °F
Feels Like 71.0 °F
N
4.0
Wind Variable Wind from NE
Gusts 6.0 mph

Today
High -- | Low -- °F
--% Chance of Precip.
Yesterday
High -- | Low -- °F
Precip. -- in
5:49 AM 7:50 PM
Full, 100% visible
Pressure 30.00 in
Visibility 3.0 miles
Clouds Mostly Cloudy 500 ft
Mostly Cloudy 9000 ft
Dew Point 70 °F
Humidity 96%
Rainfall 0.00 in
Snow Depth Not available.
UV 0 out of 12
Pollen 3.80 out of 12
Air Quality Not available.
Flu Activity Sporadic
SPECI KBFM 021202Z COR 36004KT 3SM BCFG BR BKN005 BKN090 22/22 A3000 RMK AO2 VIS N-E 1 T02220217

More Conditions Fewer Conditions

Pressure 30.00 in
Visibility 3.0 miles
Clouds Mostly Cloudy 500 ft
Mostly Cloudy 9000 ft
Dew Point 70 °F
Humidity 96%
Rainfall 0.00 in
Snow Depth Not available.
UV 0 out of 12
Pollen 3.80 out of 12
Air Quality Not available.
Flu Activity Sporadic
SPECI KBFM 021202Z COR 36004KT 3SM BCFG BR BKN005 BKN090 22/22 A3000 RMK AO2 VIS N-E 1 T02220217

More Conditions Fewer Conditions

10-Day Weather Forecast

Almanac

Astronomy

Jun. 02, 2015 Rise Set
Actual Time
Civil Twilight
Nautical Twilight
Astronomical Twilight
Moon
Length of Visible Light
Length of Day
Tomorrow will be .
, % of the Moon is Illuminated

Today's Extremes

State Highs State Lows

Community

WunderPhotos

Upload Photos

1,825,879 photos uploaded!

WunderBlogs® & News

Nearby

Air Quality

  Air Quality AQ Index Pollutant
Not available.

Snow Depth

Station Depth Elevation

Earthquake Activity

City Distance Mag. Time & Date
Minimum magnitude displayed is 2.5.

Coastal Water Temperatures

Place Temperature

Stations

Nearby Weather Stations

Station Location Temp. Windchill Dew Point Humidity Wind Precip. Elev Updated Type